South Heights, Pennsylvania
Current Conditions -  °F | °C
As of 9:51 AM on Saturday 25 Oct 2014 (Local Time) from KPIT Reporting Station
Overcast Overcast  
Wind Chill: 52°   Ceiling: 10000
Heat Index: 52°   Visibility: 10mi
Dew Point: 42°   Wind: 8mph
Humidity: 69%   Direction: 230°SW
Pressure: 29.95"   Gusts: NA
Location:  40.57°N, 80.24°W
Report Text: KPIT 251351Z 23007KT 10SM FEW042 BKN100 OVC250 11/06 A2995 RMK AO2 SLP152 T01110056
Loading
Personal Weather Stations






























Interactive Weather Map
Tropical Storm Tracking
New forecast layout! Learn more

10-Day Weather Forecast

Advertisements
Track Severe Weather on mobile